Time;durP1;ratioP1;P1;durP2;ratioP2;P2;SDS_P1;SDS_P2;PMS_P1;PMS_P2;Temp;Humidity;BMP_temperature;BMP_pressure;BME280_temperature;BME280_humidity;BME280_pressure;Samples;Min_cycle;Max_cycle;Signal;HPM_P1;HPM_P2
2023/12/28 00:00:17;;;;;;;0.95;0.88;;;;;;;18.50;39.11;100886.25;16108062;19;129512;-66
2023/12/28 00:05:39;;;;;;;1.25;0.82;;;;;;;18.48;39.51;100904.19;16106509;19;129839;-65
2023/12/28 00:11:01;;;;;;;1.42;0.82;;;;;;;18.44;39.29;100899.16;16110973;19;130559;-65
2023/12/28 00:16:23;;;;;;;1.50;1.20;;;;;;;18.42;39.31;100917.09;16109738;19;131658;-65
2023/12/28 00:21:45;;;;;;;2.00;1.10;;;;;;;18.39;39.55;100923.09;16109171;19;129999;-65
2023/12/28 00:27:07;;;;;;;1.23;0.82;;;;;;;18.37;39.39;100917.78;16108281;19;130239;-66
2023/12/28 00:32:29;;;;;;;0.80;0.70;;;;;;;18.34;39.43;100918.25;16104764;19;130042;-66
2023/12/28 00:37:51;;;;;;;1.10;0.77;;;;;;;18.33;39.67;100937.91;16108370;19;132016;-66
2023/12/28 00:43:13;;;;;;;2.28;0.98;;;;;;;18.31;39.55;100933.47;16109754;19;130750;-65
2023/12/28 00:48:35;;;;;;;1.20;1.00;;;;;;;18.28;39.55;100927.56;16105058;19;134670;-66
2023/12/28 00:53:57;;;;;;;1.50;0.70;;;;;;;18.25;39.80;100936.34;16106418;19;130322;-66
2023/12/28 00:59:19;;;;;;;2.03;0.90;;;;;;;18.23;40.00;100939.38;16106432;19;130371;-66
2023/12/28 01:04:41;;;;;;;0.98;0.65;;;;;;;18.21;39.70;100935.19;16104813;19;130444;-66
2023/12/28 01:10:04;;;;;;;1.35;0.77;;;;;;;18.19;39.54;100942.88;16115442;19;132995;-67
2023/12/28 01:15:26;;;;;;;1.85;0.70;;;;;;;18.18;39.93;100935.66;16121365;19;130489;-67
2023/12/28 01:20:48;;;;;;;1.25;0.70;;;;;;;18.17;40.01;100950.59;16119425;19;129806;-66
2023/12/28 01:26:19;;;;;;;1.48;0.88;;;;;;;18.17;39.77;100958.91;16118918;19;130717;-67
2023/12/28 01:31:41;;;;;;;2.25;1.00;;;;;;;18.13;40.05;100959.38;16120745;19;129356;-67
2023/12/28 01:37:03;;;;;;;2.42;0.80;;;;;;;18.12;39.88;100960.44;16116704;19;129529;-66
2023/12/28 01:42:25;;;;;;;1.90;0.80;;;;;;;18.11;39.78;100975.38;16118569;19;129570;-66
2023/12/28 01:47:48;;;;;;;1.17;0.77;;;;;;;18.10;40.12;100983.94;16113934;19;130769;-67
2023/12/28 01:53:10;;;;;;;1.20;0.82;;;;;;;18.07;39.90;100979.72;16117339;19;129846;-66
2023/12/28 01:58:34;;;;;;;4.07;1.00;;;;;;;18.07;40.07;100978.88;16115434;19;131299;-67
2023/12/28 02:03:57;;;;;;;1.83;0.90;;;;;;;18.04;39.80;100980.22;16121002;19;130963;-66
2023/12/28 02:09:19;;;;;;;1.50;0.70;;;;;;;18.05;40.11;100967.19;16118802;19;130852;-67
2023/12/28 02:14:41;;;;;;;1.83;0.80;;;;;;;18.03;40.09;100984.06;16120289;19;129848;-67
2023/12/28 02:20:06;;;;;;;1.55;0.90;;;;;;;18.02;39.84;100974.06;16116575;19;130638;-67
2023/12/28 02:25:28;;;;;;;2.57;0.73;;;;;;;18.00;39.92;100967.91;16118864;19;130818;-66
2023/12/28 02:30:50;;;;;;;0.98;0.70;;;;;;;17.98;39.91;100984.78;16119678;19;130064;-68
2023/12/28 02:36:13;;;;;;;1.10;0.70;;;;;;;17.98;40.01;100992.22;16116664;19;129690;-66
2023/12/28 02:41:36;;;;;;;1.10;0.70;;;;;;;17.98;39.94;100981.16;16118413;19;131275;-68
2023/12/28 02:46:58;;;;;;;1.73;0.98;;;;;;;17.97;40.30;100976.72;16115103;19;129847;-67
2023/12/28 02:52:20;;;;;;;1.13;0.60;;;;;;;17.95;40.18;100973.34;16116047;19;134470;-65
2023/12/28 02:57:44;;;;;;;1.55;0.70;;;;;;;17.95;39.99;100976.94;16114475;19;129599;-66
2023/12/28 03:03:06;;;;;;;0.88;0.52;;;;;;;17.92;39.89;100965.53;16102061;19;129564;-65
2023/12/28 03:08:28;;;;;;;0.82;0.50;;;;;;;17.90;39.91;100968.53;16112817;19;130871;-66
2023/12/28 03:13:50;;;;;;;1.60;0.50;;;;;;;17.89;39.92;100957.69;16113969;19;129691;-66
2023/12/28 03:19:12;;;;;;;1.33;0.68;;;;;;;17.89;40.30;100968.75;16115555;19;130573;-67
2023/12/28 03:24:37;;;;;;;1.10;0.60;;;;;;;17.88;40.30;100956.00;16111333;19;130588;-66
2023/12/28 03:29:59;;;;;;;1.47;0.67;;;;;;;17.86;40.33;100953.50;16109508;19;131370;-67
2023/12/28 03:35:21;;;;;;;2.05;0.90;;;;;;;17.84;40.03;100947.34;16113670;19;130836;-66
2023/12/28 03:40:46;;;;;;;0.95;0.60;;;;;;;17.83;40.25;100943.75;16115124;19;129578;-67
2023/12/28 03:46:09;;;;;;;1.88;0.60;;;;;;;17.82;40.04;100960.56;16114243;19;130394;-68
2023/12/28 03:51:31;;;;;;;1.75;0.80;;;;;;;17.80;40.08;100946.13;16112550;19;131754;-68
2023/12/28 03:56:54;;;;;;;2.42;0.90;;;;;;;17.79;39.90;100961.91;16111486;19;129381;-70
2023/12/28 04:02:16;;;;;;;1.67;0.80;;;;;;;17.78;40.18;100965.75;16114369;19;131330;-67
2023/12/28 04:07:37;;;;;;;1.83;0.88;;;;;;;17.78;40.24;100970.47;16110930;19;131291;-67
2023/12/28 04:13:00;;;;;;;1.48;0.60;;;;;;;17.76;40.14;100984.50;16112406;19;131264;-66
2023/12/28 04:18:22;;;;;;;2.97;0.90;;;;;;;17.76;40.00;100976.22;16109400;19;130528;-66
2023/12/28 04:23:44;;;;;;;2.95;0.70;;;;;;;17.75;40.01;100980.06;16112830;19;130220;-66
2023/12/28 04:29:07;;;;;;;3.17;0.77;;;;;;;17.75;40.26;100979.22;16110524;19;131100;-66
2023/12/28 04:34:29;;;;;;;4.03;1.45;;;;;;;17.75;40.37;100984.78;16106658;19;129698;-66
2023/12/28 04:39:51;;;;;;;2.17;0.95;;;;;;;17.73;39.97;100987.75;16108371;19;131169;-66
2023/12/28 04:45:13;;;;;;;4.13;1.08;;;;;;;17.72;40.35;100999.94;16105014;19;130687;-66
2023/12/28 04:50:35;;;;;;;2.35;0.70;;;;;;;17.72;40.35;101004.59;16107713;19;134177;-66
2023/12/28 04:56:00;;;;;;;2.13;0.70;;;;;;;17.71;39.93;101006.53;16106331;19;134584;-66
2023/12/28 05:01:22;;;;;;;2.85;0.95;;;;;;;17.71;39.96;101008.44;16107713;19;130796;-66
2023/12/28 05:06:44;;;;;;;3.60;0.90;;;;;;;17.69;40.10;101017.00;16110215;19;131073;-66
2023/12/28 05:12:06;;;;;;;5.00;1.10;;;;;;;17.69;40.31;101011.47;16106221;19;130663;-66
2023/12/28 05:17:28;;;;;;;3.60;0.90;;;;;;;17.69;40.31;101000.41;16108970;19;131574;-66
2023/12/28 05:22:50;;;;;;;3.72;1.00;;;;;;;17.68;40.02;101004.25;16106741;19;129721;-67
2023/12/28 05:28:12;;;;;;;3.15;1.10;;;;;;;17.67;40.37;100999.78;16105303;19;131086;-66
2023/12/28 05:33:34;;;;;;;4.47;1.15;;;;;;;17.66;40.00;100998.09;16103087;19;129231;-66
2023/12/28 05:38:56;;;;;;;4.65;1.00;;;;;;;17.65;40.25;100996.41;16104813;19;131379;-66
2023/12/28 05:44:18;;;;;;;4.55;0.82;;;;;;;17.64;39.97;101011.31;16107726;19;130516;-67
2023/12/28 05:49:40;;;;;;;2.75;0.98;;;;;;;17.63;40.31;101004.09;16105217;19;132918;-67
2023/12/28 05:55:02;;;;;;;2.42;0.95;;;;;;;17.63;39.98;101015.16;16110647;19;130438;-66
2023/12/28 06:00:25;;;;;;;2.33;1.00;;;;;;;17.61;39.99;101025.63;16117346;19;129632;-66
2023/12/28 06:05:46;;;;;;;4.97;1.38;;;;;;;17.61;40.28;101033.91;16118954;19;129302;-67
2023/12/28 06:11:09;;;;;;;3.78;0.90;;;;;;;17.61;40.22;101043.09;16120197;19;132258;-66
2023/12/28 06:16:32;;;;;;;2.67;0.95;;;;;;;17.59;39.85;101045.25;16114746;19;131276;-66
2023/12/28 06:21:55;;;;;;;5.20;1.50;;;;;;;17.59;39.59;101022.28;16115965;19;130961;-65
2023/12/28 06:27:17;;;;;;;15.05;2.08;;;;;;;17.58;40.09;101042.72;16120681;19;130545;-66
2023/12/28 06:32:39;;;;;;;5.95;1.33;;;;;;;17.57;39.77;101036.31;16115227;19;131236;-67
2023/12/28 06:38:02;;;;;;;6.93;1.83;;;;;;;17.57;39.79;101030.78;16114543;19;131066;-66
2023/12/28 06:43:25;;;;;;;8.55;1.48;;;;;;;17.58;40.08;101042.72;16119272;19;130032;-66
2023/12/28 06:48:47;;;;;;;7.15;1.55;;;;;;;17.57;39.99;101047.41;16108805;19;131431;-66
2023/12/28 06:54:09;;;;;;;7.10;1.73;;;;;;;17.57;40.11;101057.63;16112821;19;131222;-63
2023/12/28 06:59:31;;;;;;;10.10;1.67;;;;;;;17.54;40.01;101048.72;16113638;19;130276;-61
2023/12/28 07:04:53;;;;;;;10.15;1.70;;;;;;;17.55;40.32;101057.84;16103150;19;132318;-61
2023/12/28 07:10:16;;;;;;;9.07;1.80;;;;;;;17.56;40.11;101053.16;16118675;19;133470;-61
2023/12/28 07:15:38;;;;;;;7.18;1.58;;;;;;;17.53;40.44;101063.59;16110156;19;131345;-61
2023/12/28 07:21:00;;;;;;;6.53;1.67;;;;;;;17.53;40.59;101074.66;16114861;19;129452;-61
2023/12/28 07:26:22;;;;;;;7.50;1.45;;;;;;;17.52;40.17;101077.66;16089498;19;129621;-61
2023/12/28 07:31:44;;;;;;;8.93;1.88;;;;;;;17.52;40.40;101078.50;16109921;19;130322;-61
2023/12/28 07:37:06;;;;;;;5.78;1.45;;;;;;;17.51;40.25;101084.28;16110213;19;129819;-61
2023/12/28 07:42:31;;;;;;;7.87;1.60;;;;;;;17.50;40.64;101083.41;16111575;19;129695;-61
2023/12/28 07:47:53;;;;;;;10.02;1.70;;;;;;;17.50;40.29;101091.72;16108689;19;130933;-60
2023/12/28 07:53:15;;;;;;;7.75;1.60;;;;;;;17.49;40.26;101090.03;16109196;19;135998;-61
2023/12/28 07:58:39;;;;;;;8.60;1.67;;;;;;;17.48;40.43;101106.88;16108635;19;130497;-61
2023/12/28 08:04:01;;;;;;;6.28;1.60;;;;;;;17.48;40.36;101109.63;16105653;19;131073;-61
2023/12/28 08:09:23;;;;;;;5.68;1.80;;;;;;;17.46;40.42;101109.88;16108794;19;129662;-61
2023/12/28 08:14:45;;;;;;;10.68;1.80;;;;;;;17.46;40.39;101111.78;16109085;19;128985;-61
2023/12/28 08:20:08;;;;;;;6.88;1.90;;;;;;;17.44;40.67;101114.78;16106703;19;129564;-61
2023/12/28 08:25:30;;;;;;;7.35;1.70;;;;;;;17.45;40.60;101122.03;16112230;19;129468;-61
2023/12/28 08:30:52;;;;;;;5.70;1.48;;;;;;;17.45;40.20;101129.44;16108466;19;129686;-60
2023/12/28 08:36:17;;;;;;;7.28;1.88;;;;;;;17.44;40.44;101114.78;16105677;19;130037;-61
2023/12/28 08:41:39;;;;;;;5.28;1.58;;;;;;;17.43;40.23;101113.09;16108461;19;131181;-61
2023/12/28 08:47:02;;;;;;;5.80;1.20;;;;;;;17.44;40.39;101125.84;16109532;19;130534;-61
2023/12/28 08:52:23;;;;;;;6.22;1.52;;;;;;;17.43;40.11;101121.41;16109656;19;130751;-61
2023/12/28 08:57:46;;;;;;;7.43;1.50;;;;;;;17.42;40.17;101139.06;16106662;19;132671;-61
2023/12/28 09:03:08;;;;;;;4.63;1.13;;;;;;;17.43;40.54;101139.91;16103546;19;129394;-61
2023/12/28 09:08:30;;;;;;;7.20;1.60;;;;;;;17.42;40.53;101149.28;16098835;19;130074;-61
2023/12/28 09:13:52;;;;;;;5.47;1.20;;;;;;;17.41;40.54;101142.91;16098241;19;130216;-61
2023/12/28 09:19:14;;;;;;;6.95;1.70;;;;;;;17.40;40.45;101152.28;16097592;19;130905;-61
2023/12/28 09:24:36;;;;;;;8.15;1.92;;;;;;;17.40;40.59;101144.00;16104772;19;129851;-61
2023/12/28 09:29:58;;;;;;;7.50;1.50;;;;;;;17.40;40.24;101152.28;16113154;19;131658;-62
2023/12/28 09:35:20;;;;;;;8.07;1.55;;;;;;;17.38;40.14;101169.13;16123354;19;131263;-61
2023/12/28 09:40:43;;;;;;;5.47;1.75;;;;;;;17.38;40.12;101166.34;16131053;19;129236;-61
2023/12/28 09:46:09;;;;;;;8.77;1.48;;;;;;;17.38;40.42;101165.50;16129175;19;131354;-61
2023/12/28 09:51:31;;;;;;;6.30;1.45;;;;;;;17.36;40.26;101179.56;16126611;19;129816;-61
2023/12/28 09:56:53;;;;;;;7.45;1.55;;;;;;;17.37;40.20;101183.16;16124942;19;129592;-62
2023/12/28 10:02:16;;;;;;;6.88;1.60;;;;;;;17.35;40.40;101188.94;16123335;19;131658;-61
2023/12/28 10:07:45;;;;;;;9.00;1.50;;;;;;;17.37;40.26;101203.38;16126217;19;130872;-61
2023/12/28 10:13:11;;;;;;;5.63;1.50;;;;;;;17.34;40.51;101186.41;16130687;19;130751;-61
2023/12/28 10:18:33;;;;;;;7.32;1.50;;;;;;;17.34;40.34;101191.94;16129843;19;131721;-61
2023/12/28 10:23:55;;;;;;;6.95;1.90;;;;;;;17.33;40.21;101196.63;16130535;19;132625;-61
2023/12/28 10:29:17;;;;;;;9.27;1.92;;;;;;;17.33;40.27;101188.31;16133061;19;129479;-61
2023/12/28 10:34:40;;;;;;;9.18;2.20;;;;;;;17.32;40.14;101177.50;16131284;19;129517;-61
2023/12/28 10:40:06;;;;;;;9.13;1.70;;;;;;;17.32;40.13;101185.78;16123882;19;134976;-61
2023/12/28 10:45:36;;;;;;;7.68;2.20;;;;;;;17.33;40.15;101181.97;16130354;19;129068;-62
2023/12/28 10:51:00;;;;;;;6.78;1.67;;;;;;;17.31;40.45;101181.34;16144701;19;130115;-62
2023/12/28 10:56:50;;;;;;;8.68;1.85;;;;;;;17.33;40.20;101174.50;16149961;19;129654;-61
2023/12/28 11:02:17;;;;;;;8.32;1.80;;;;;;;17.31;40.28;101175.81;16143370;19;131073;-63
2023/12/28 11:07:41;;;;;;;6.85;1.67;;;;;;;17.30;40.24;101166.66;16132984;19;129963;-62
2023/12/28 11:13:04;;;;;;;5.93;1.73;;;;;;;17.30;40.28;101171.34;16133285;19;129446;-62
2023/12/28 11:18:28;;;;;;;13.82;2.35;;;;;;;17.31;40.31;101170.28;16135692;19;129336;-62
2023/12/28 11:23:50;;;;;;;10.18;2.13;;;;;;;17.28;40.42;101157.75;16131900;19;130336;-60
2023/12/28 11:29:12;;;;;;;10.50;2.47;;;;;;;17.28;40.40;101140.31;16131583;19;129441;-61
2023/12/28 11:34:34;;;;;;;10.77;2.10;;;;;;;17.28;40.66;101129.25;16123951;19;131075;-62
2023/12/28 11:39:57;;;;;;;8.73;1.95;;;;;;;17.29;40.19;101122.66;16125523;19;130689;-61
2023/12/28 11:45:22;;;;;;;8.20;1.83;;;;;;;17.28;40.33;101112.66;16122468;19;130160;-61
2023/12/28 11:50:44;;;;;;;10.70;2.22;;;;;;;17.26;40.57;101089.94;16116395;19;130522;-63
2023/12/28 11:56:09;;;;;;;11.68;2.00;;;;;;;17.26;40.24;101087.16;16123324;19;129318;-64
2023/12/28 12:01:31;;;;;;;10.07;2.20;;;;;;;17.24;40.49;101091.00;16123644;19;129267;-64
2023/12/28 12:06:53;;;;;;;9.07;2.35;;;;;;;17.24;40.44;101085.47;16117324;19;130275;-62
2023/12/28 12:12:16;;;;;;;11.52;2.05;;;;;;;17.24;40.20;101091.00;16122600;19;130774;-62
2023/12/28 12:17:39;;;;;;;9.68;2.28;;;;;;;17.26;40.48;101073.34;16115716;19;131021;-62
2023/12/28 12:23:02;;;;;;;8.48;1.98;;;;;;;17.24;40.28;101071.66;16117133;19;130752;-61
2023/12/28 12:28:24;;;;;;;9.32;2.00;;;;;;;17.24;40.25;101077.19;16114700;19;130615;-61
2023/12/28 12:33:46;;;;;;;12.50;2.08;;;;;;;17.24;40.25;101065.28;16109390;19;130819;-61
2023/12/28 12:39:13;;;;;;;9.15;2.25;;;;;;;17.24;40.58;101059.75;16112529;19;129742;-61
2023/12/28 12:44:35;;;;;;;10.60;1.98;;;;;;;17.23;40.43;101064.44;16111148;19;131349;-61
2023/12/28 12:49:57;;;;;;;7.53;2.00;;;;;;;17.22;40.68;101067.44;16111537;19;131620;-61
2023/12/28 12:55:18;;;;;;;7.43;1.85;;;;;;;17.22;40.44;101062.78;16112908;19;130351;-61
2023/12/28 13:00:40;;;;;;;9.63;1.92;;;;;;;17.22;40.72;101057.25;16111618;19;130668;-62
2023/12/28 13:06:03;;;;;;;8.93;2.20;;;;;;;17.21;40.53;101038.97;16107473;19;130829;-62
2023/12/28 13:11:26;;;;;;;8.05;2.00;;;;;;;17.22;40.70;101028.72;16103915;19;130105;-62
2023/12/28 13:16:52;;;;;;;7.28;1.85;;;;;;;17.20;40.28;101040.03;16107532;19;129333;-62
2023/12/28 13:22:18;;;;;;;9.48;2.25;;;;;;;17.20;40.47;101030.88;16107880;19;129469;-62
2023/12/28 13:27:40;;;;;;;6.78;2.10;;;;;;;17.21;40.35;101030.66;16108337;19;133255;-62
2023/12/28 13:33:05;;;;;;;8.57;2.03;;;;;;;17.21;40.23;101032.56;16109214;19;129880;-62
2023/12/28 13:38:27;;;;;;;9.02;2.03;;;;;;;17.20;40.63;101036.41;16110244;19;130090;-62
2023/12/28 13:43:49;;;;;;;7.45;1.95;;;;;;;17.19;40.21;101041.09;16107894;19;129934;-62
2023/12/28 13:49:11;;;;;;;7.28;1.58;;;;;;;17.19;40.41;101035.59;16110675;19;129607;-62
2023/12/28 13:54:33;;;;;;;8.75;1.88;;;;;;;17.19;40.59;101057.69;16110628;19;129259;-60
2023/12/28 13:59:59;;;;;;;8.70;2.05;;;;;;;17.19;40.60;101037.47;16110847;19;132058;-62
2023/12/28 14:05:23;;;;;;;9.48;2.22;;;;;;;17.18;40.68;101022.84;16108717;19;133337;-62
2023/12/28 14:10:45;;;;;;;8.90;2.28;;;;;;;17.17;40.54;101025.84;16108736;19;130161;-62
2023/12/28 14:16:08;;;;;;;7.65;1.77;;;;;;;17.17;40.23;101023.91;16114478;19;129758;-62
2023/12/28 14:21:38;;;;;;;10.10;2.08;;;;;;;17.18;40.53;101021.97;16124299;19;129646;-62
2023/12/28 14:27:00;;;;;;;8.05;2.05;;;;;;;17.16;40.60;101019.44;16121271;19;131706;-62
2023/12/28 14:32:22;;;;;;;10.50;2.08;;;;;;;17.15;40.35;101020.53;16123028;19;129972;-61
2023/12/28 14:37:45;;;;;;;7.22;1.88;;;;;;;17.14;40.25;101027.13;16114943;19;129587;-62
2023/12/28 14:43:07;;;;;;;9.23;2.25;;;;;;;17.14;40.23;101021.59;16121367;19;129842;-61
2023/12/28 14:48:29;;;;;;;6.55;2.08;;;;;;;17.14;40.37;101027.13;16120049;19;130146;-61
2023/12/28 14:53:51;;;;;;;6.65;2.05;;;;;;;17.14;40.35;101016.06;16118299;19;129896;-61
2023/12/28 14:59:13;;;;;;;10.65;2.55;;;;;;;17.13;40.34;101014.38;16118358;19;129798;-61
2023/12/28 15:04:37;;;;;;;7.65;2.50;;;;;;;17.12;40.18;101015.47;16117664;19;134106;-62
2023/12/28 15:09:59;;;;;;;6.13;2.17;;;;;;;17.12;40.19;101014.63;16118692;19;129567;-62
2023/12/28 15:15:22;;;;;;;5.68;2.10;;;;;;;17.12;40.56;101009.94;16113531;19;131170;-61
2023/12/28 15:20:48;;;;;;;8.90;2.40;;;;;;;17.11;40.32;101011.00;16111870;19;130320;-62
2023/12/28 15:26:10;;;;;;;8.18;2.10;;;;;;;17.10;40.13;101009.34;16107856;19;131939;-62
2023/12/28 15:31:32;;;;;;;5.30;2.15;;;;;;;17.09;40.00;101010.41;16116068;19;129839;-61
2023/12/28 15:36:55;;;;;;;7.90;2.30;;;;;;;17.08;40.23;101015.09;16113884;19;130410;-62
2023/12/28 15:42:17;;;;;;;9.45;2.63;;;;;;;17.06;40.10;101014.47;16106581;19;131982;-60
2023/12/28 15:47:39;;;;;;;8.90;2.20;;;;;;;17.00;39.62;101000.75;16111779;19;130821;-60
2023/12/28 15:53:01;;;;;;;12.75;2.53;;;;;;;16.99;39.76;101013.72;16108531;19;130480;-61
2023/12/28 15:58:23;;;;;;;6.63;2.20;;;;;;;17.15;39.89;101015.00;16113396;19;129286;-62
2023/12/28 16:03:45;;;;;;;11.25;2.53;;;;;;;17.42;39.75;101009.09;16111832;19;130770;-62
2023/12/28 16:09:07;;;;;;;10.18;2.10;;;;;;;17.77;39.85;101010.28;16107226;19;131762;-61
2023/12/28 16:14:30;;;;;;;14.93;2.40;;;;;;;18.08;39.05;101003.56;16107076;19;129671;-64
2023/12/28 16:19:52;;;;;;;11.70;2.50;;;;;;;18.31;38.93;101004.63;16107986;19;129452;-61
2023/12/28 16:25:14;;;;;;;8.23;2.10;;;;;;;18.49;38.42;101002.81;16105064;19;129484;-61
2023/12/28 16:30:36;;;;;;;11.85;3.03;;;;;;;18.61;38.40;101009.19;16108337;19;130203;-59
2023/12/28 16:35:58;;;;;;;15.48;3.28;;;;;;;18.72;38.20;101015.78;16104780;19;131363;-61
2023/12/28 16:41:20;;;;;;;19.73;3.85;;;;;;;18.77;38.68;100997.34;16108484;19;131701;-60
2023/12/28 16:46:45;;;;;;;13.35;3.22;;;;;;;18.81;38.48;100997.69;16114775;19;131707;-61
2023/12/28 16:52:08;;;;;;;24.02;4.07;;;;;;;18.81;38.58;100988.53;16107069;19;129878;-59
2023/12/28 16:57:30;;;;;;;11.85;3.22;;;;;;;18.77;38.31;100991.78;16107442;19;129567;-59
2023/12/28 17:02:52;;;;;;;14.27;3.03;;;;;;;18.73;38.83;100993.38;16113583;19;129577;-60
2023/12/28 17:08:14;;;;;;;10.65;2.50;;;;;;;18.69;38.82;100994.97;16110973;19;130235;-61
2023/12/28 17:13:36;;;;;;;12.18;3.47;;;;;;;18.66;38.69;100994.59;16105540;19;130368;-60
2023/12/28 17:18:58;;;;;;;115.65;48.08;;;;;;;18.63;38.58;100986.78;16102060;19;129610;-61
2023/12/28 17:24:23;;;;;;;82.78;34.60;;;;;;;18.61;38.38;100978.69;16104674;19;132121;-61
2023/12/28 17:29:48;;;;;;;120.23;55.40;;;;;;;18.65;38.76;100968.81;16105654;19;130710;-61
2023/12/28 17:35:11;;;;;;;142.73;62.63;;;;;;;18.76;38.85;100987.34;16104755;19;132743;-61
2023/12/28 17:40:33;;;;;;;126.72;57.85;;;;;;;19.00;38.64;100995.56;16104045;19;129574;-61
2023/12/28 17:46:00;;;;;;;180.85;88.60;;;;;;;19.21;39.02;100987.66;16106070;19;129808;-63
2023/12/28 17:51:28;;;;;;;290.58;133.43;;;;;;;19.44;40.24;100989.47;16116248;19;130048;-69
2023/12/28 17:56:53;;;;;;;334.10;135.65;;;;;;;19.65;40.38;100987.03;16122411;19;131755;-67
2023/12/28 18:02:17;;;;;;;201.18;93.15;;;;;;;19.82;39.67;100987.03;16123437;19;129792;-62
2023/12/28 18:07:39;;;;;;;237.63;111.78;;;;;;;19.97;40.24;100978.97;16121142;19;130374;-63
2023/12/28 18:13:01;;;;;;;177.88;86.60;;;;;;;20.16;40.48;100981.50;16113596;19;130396;-62
2023/12/28 18:18:23;;;;;;;165.25;75.22;;;;;;;20.39;40.34;100974.03;16100817;19;130049;-66
2023/12/28 18:23:45;;;;;;;153.45;73.38;;;;;;;20.49;40.66;100974.16;16106196;19;131650;-63
2023/12/28 18:29:07;;;;;;;150.45;68.50;;;;;;;20.50;40.74;100970.28;16109399;19;129751;-66
2023/12/28 18:34:29;;;;;;;129.55;55.60;;;;;;;20.46;40.35;100969.13;16113203;19;132058;-60
2023/12/28 18:39:51;;;;;;;118.72;50.38;;;;;;;20.42;40.52;100967.97;16109987;19;129575;-58
2023/12/28 18:45:13;;;;;;;121.13;58.33;;;;;;;20.40;40.91;100976.53;16109808;19;131332;-58
2023/12/28 18:50:35;;;;;;;121.30;50.70;;;;;;;20.44;41.32;100974.09;16028569;19;152901;-49
2023/12/28 18:55:57;;;;;;;80.80;32.50;;;;;;;20.44;40.00;100974.09;16109732;19;130005;-58
2023/12/28 19:01:19;;;;;;;61.60;25.65;;;;;;;20.36;39.43;100971.75;16112022;19;131040;-60
2023/12/28 19:06:41;;;;;;;63.97;22.45;;;;;;;20.29;39.70;100974.72;16118115;19;129528;-59
2023/12/28 19:12:04;;;;;;;70.07;29.45;;;;;;;20.26;40.30;100959.41;16111729;19;129453;-58
2023/12/28 19:17:26;;;;;;;73.72;29.50;;;;;;;20.35;40.67;100970.94;16103330;19;129844;-67
2023/12/28 19:22:48;;;;;;;57.97;25.00;;;;;;;20.40;40.96;100964.59;16111277;19;129723;-59
2023/12/28 19:28:10;;;;;;;69.78;28.75;;;;;;;20.41;41.02;100960.72;16111048;19;130390;-59
2023/12/28 19:33:32;;;;;;;60.42;22.83;;;;;;;20.36;40.51;100955.94;16104439;19;131598;-60
2023/12/28 19:38:54;;;;;;;45.25;17.67;;;;;;;20.23;39.77;100948.00;16104282;19;130946;-61
2023/12/28 19:44:17;;;;;;;41.33;14.95;;;;;;;20.14;39.65;100931.75;16101333;19;130493;-62
2023/12/28 19:49:39;;;;;;;38.00;14.13;;;;;;;20.07;39.20;100930.25;16109027;19;130208;-62
2023/12/28 19:55:01;;;;;;;37.53;13.15;;;;;;;19.99;39.61;100915.72;16105972;19;131558;-61
2023/12/28 20:00:23;;;;;;;39.47;12.43;;;;;;;19.91;39.41;100918.06;16106547;19;129856;-61
2023/12/28 20:05:45;;;;;;;31.08;11.30;;;;;;;19.84;39.53;100929.34;16108813;19;131604;-61
2023/12/28 20:11:07;;;;;;;29.42;10.13;;;;;;;19.76;39.15;100930.59;16109594;19;130310;-60
2023/12/28 20:16:29;;;;;;;27.30;9.18;;;;;;;19.68;39.51;100926.34;16101600;19;130610;-67
2023/12/28 20:21:52;;;;;;;24.70;7.53;;;;;;;19.76;39.83;100922.28;16111315;19;131636;-63
2023/12/28 20:27:14;;;;;;;24.88;7.95;;;;;;;19.90;39.79;100927.47;16111919;19;130365;-61
2023/12/28 20:32:37;;;;;;;18.90;6.88;;;;;;;20.02;39.72;100908.81;16109816;19;130452;-62
2023/12/28 20:38:00;;;;;;;23.35;6.43;;;;;;;20.14;39.94;100900.38;16109360;19;130637;-63
2023/12/28 20:43:22;;;;;;;23.63;6.25;;;;;;;20.23;39.89;100898.81;16104465;19;130386;-61
2023/12/28 20:48:45;;;;;;;13.63;4.63;;;;;;;20.35;39.55;100897.84;16102428;19;130273;-65
2023/12/28 20:54:07;;;;;;;14.65;4.75;;;;;;;20.46;39.59;100885.75;16104136;19;131145;-61
2023/12/28 20:59:29;;;;;;;18.48;4.72;;;;;;;20.56;39.35;100907.28;16105789;19;131242;-61
2023/12/28 21:04:51;;;;;;;18.08;4.30;;;;;;;20.66;38.76;100903.78;16103012;19;130309;-62
2023/12/28 21:10:13;;;;;;;14.05;3.85;;;;;;;20.70;38.98;100918.81;16104714;19;130895;-65
2023/12/28 21:15:36;;;;;;;11.27;3.42;;;;;;;20.71;39.13;100909.38;16099749;19;130587;-61
2023/12/28 21:20:59;;;;;;;13.48;3.67;;;;;;;20.65;39.12;100916.81;16096832;19;129924;-61
2023/12/28 21:26:32;;;;;;;11.07;2.83;;;;;;;20.57;38.58;100909.78;16106786;19;130473;-64
2023/12/28 21:31:54;;;;;;;9.60;3.08;;;;;;;20.44;37.47;100899.06;16113718;19;130417;-61
2023/12/28 21:37:16;;;;;;;12.65;2.40;;;;;;;20.28;37.12;100900.81;15963676;19;2959828;-66
2023/12/28 21:42:39;;;;;;;16.83;3.13;;;;;;;20.18;37.25;100907.09;16120894;19;129270;-66
2023/12/28 21:48:02;;;;;;;7.38;2.10;;;;;;;20.08;37.67;100902.25;16121194;19;129829;-66
2023/12/28 21:53:27;;;;;;;13.10;2.63;;;;;;;19.97;37.59;100892.88;16122027;19;130272;-66
2023/12/28 21:58:49;;;;;;;12.43;2.70;;;;;;;19.86;37.46;100893.00;16124189;19;129388;-66
2023/12/28 22:04:11;;;;;;;8.38;2.00;;;;;;;19.76;37.21;100893.69;16123247;19;131200;-66
2023/12/28 22:09:34;;;;;;;10.95;2.25;;;;;;;19.66;37.77;100898.00;16117078;19;131991;-66
2023/12/28 22:14:56;;;;;;;7.45;1.88;;;;;;;19.57;37.73;100893.13;16120936;19;130733;-66
2023/12/28 22:20:19;;;;;;;11.50;2.03;;;;;;;19.48;37.89;100892.69;16119996;19;131077;-66
2023/12/28 22:25:41;;;;;;;8.88;1.90;;;;;;;19.41;37.73;100905.91;16119663;19;129829;-66
2023/12/28 22:31:03;;;;;;;7.88;1.85;;;;;;;19.32;37.72;100897.16;16119874;19;129941;-66
2023/12/28 22:36:25;;;;;;;7.53;2.00;;;;;;;19.24;37.96;100909.50;16117092;19;130952;-67
2023/12/28 22:41:47;;;;;;;5.78;1.80;;;;;;;19.17;37.78;100898.56;16120442;19;130473;-66
2023/12/28 22:47:09;;;;;;;6.72;1.92;;;;;;;19.10;37.60;100892.34;16117589;19;130041;-66
2023/12/28 22:52:30;;;;;;;6.55;1.75;;;;;;;19.03;37.73;100899.97;16119435;19;131389;-67
2023/12/28 22:57:55;;;;;;;9.00;1.98;;;;;;;18.97;38.08;100892.66;16119116;19;130006;-66
2023/12/28 23:03:20;;;;;;;4.47;1.60;;;;;;;18.90;38.11;100887.25;16118087;19;129570;-66
2023/12/28 23:08:42;;;;;;;6.35;1.33;;;;;;;18.86;37.72;100869.44;16119953;19;129294;-66
2023/12/28 23:14:04;;;;;;;6.30;1.40;;;;;;;18.81;37.91;100877.69;16116123;19;131597;-65
2023/12/28 23:19:25;;;;;;;5.03;1.40;;;;;;;18.76;37.91;100870.94;16114567;19;130992;-66
2023/12/28 23:24:47;;;;;;;3.85;1.20;;;;;;;18.73;38.01;100871.44;16108134;19;129878;-66
2023/12/28 23:30:14;;;;;;;6.72;1.63;;;;;;;18.70;37.94;100863.63;16108850;19;130503;-66
2023/12/28 23:35:36;;;;;;;4.07;1.20;;;;;;;18.66;37.94;100851.34;16112193;19;129577;-66
2023/12/28 23:40:58;;;;;;;4.97;1.15;;;;;;;18.61;38.04;100854.00;16112005;19;130826;-65
2023/12/28 23:46:20;;;;;;;4.68;1.38;;;;;;;18.56;38.21;100854.75;16112899;19;130050;-66
2023/12/28 23:51:42;;;;;;;4.55;1.10;;;;;;;18.54;37.74;100850.56;16110643;19;129477;-65
2023/12/28 23:57:05;;;;;;;5.75;1.55;;;;;;;18.50;38.04;100866.00;16110904;19;130906;-66
